createdAt,value
2023-02-19T00:00:36.533Z,1009.52
2023-02-19T00:01:36.514Z,1009.54
2023-02-19T00:02:36.511Z,1009.46
2023-02-19T00:03:36.659Z,1009.50
2023-02-19T00:04:36.532Z,1009.49
2023-02-19T00:05:36.470Z,1009.48
2023-02-19T00:06:36.469Z,1009.43
2023-02-19T00:07:36.461Z,1009.45
2023-02-19T00:08:36.471Z,1009.44
2023-02-19T00:09:36.425Z,1009.48
2023-02-19T00:10:36.425Z,1009.47
2023-02-19T00:11:36.403Z,1009.45
2023-02-19T00:12:36.402Z,1009.49
2023-02-19T00:13:36.470Z,1009.45
2023-02-19T00:14:36.377Z,1009.45
2023-02-19T00:15:36.388Z,1009.44
2023-02-19T00:16:36.360Z,1009.42
2023-02-19T00:17:36.349Z,1009.36
2023-02-19T00:18:36.420Z,1009.38
2023-02-19T00:19:36.336Z,1009.38
2023-02-19T00:20:36.311Z,1009.40
2023-02-19T00:21:36.306Z,1009.40
2023-02-19T00:22:36.291Z,1009.39
2023-02-19T00:23:36.288Z,1009.43
2023-02-19T00:24:36.284Z,1009.40
2023-02-19T00:25:36.250Z,1009.42
2023-02-19T00:26:36.257Z,1009.39
2023-02-19T00:27:36.231Z,1009.35
2023-02-19T00:28:36.231Z,1009.40
2023-02-19T00:29:36.207Z,1009.40
2023-02-19T00:30:36.204Z,1009.38
2023-02-19T00:31:36.298Z,1009.32
2023-02-19T00:32:36.177Z,1009.36
2023-02-19T00:33:36.183Z,1009.33
2023-02-19T00:34:36.160Z,1009.35
2023-02-19T00:35:36.144Z,1009.37
2023-02-19T00:36:36.909Z,1009.38
2023-02-19T00:37:36.188Z,1009.43
2023-02-19T00:38:36.126Z,1009.43
2023-02-19T00:39:36.096Z,1009.39
2023-02-19T00:40:36.091Z,1009.37
2023-02-19T00:41:36.136Z,1009.40
2023-02-19T00:42:36.069Z,1009.35
2023-02-19T00:43:36.069Z,1009.32
2023-02-19T00:44:36.047Z,1009.33
2023-02-19T00:45:36.028Z,1009.36
2023-02-19T00:46:36.106Z,1009.34
2023-02-19T00:47:36.017Z,1009.35
2023-02-19T00:48:36.019Z,1009.29
2023-02-19T00:49:35.991Z,1009.30
2023-02-19T00:50:35.980Z,1009.34
2023-02-19T00:51:35.976Z,1009.38
2023-02-19T00:52:35.952Z,1009.36
2023-02-19T00:53:35.946Z,1009.41
2023-02-19T00:54:35.945Z,1009.41
2023-02-19T00:55:35.931Z,1009.42
2023-02-19T00:56:35.917Z,1009.40
2023-02-19T00:57:35.916Z,1009.38
2023-02-19T00:58:35.895Z,1009.39
2023-02-19T00:59:35.887Z,1009.41
2023-02-19T01:00:35.864Z,1009.35
2023-02-19T01:01:35.929Z,1009.38
2023-02-19T01:02:35.842Z,1009.42
2023-02-19T01:03:35.832Z,1009.43
2023-02-19T01:04:35.917Z,1009.43
2023-02-19T01:05:35.813Z,1009.47
2023-02-19T01:06:35.862Z,1009.38
2023-02-19T01:07:35.788Z,1009.36
2023-02-19T01:08:35.771Z,1009.38
2023-02-19T01:09:35.775Z,1009.38
2023-02-19T01:10:35.756Z,1009.39
2023-02-19T01:11:35.741Z,1009.33
2023-02-19T01:12:35.733Z,1009.34
2023-02-19T01:13:35.726Z,1009.39
2023-02-19T01:14:35.723Z,1009.36
2023-02-19T01:15:35.694Z,1009.35
2023-02-19T01:16:35.684Z,1009.36
2023-02-19T01:17:35.671Z,1009.37
2023-02-19T01:18:35.660Z,1009.39
2023-02-19T01:19:35.663Z,1009.39
2023-02-19T01:20:35.632Z,1009.35
2023-02-19T01:21:35.634Z,1009.35
2023-02-19T01:22:35.618Z,1009.33
2023-02-19T01:23:35.608Z,1009.36
2023-02-19T01:24:35.601Z,1009.35
2023-02-19T01:25:35.586Z,1009.33
2023-02-19T01:26:35.569Z,1009.38
2023-02-19T01:27:35.563Z,1009.40
2023-02-19T01:28:35.552Z,1009.41
2023-02-19T01:29:35.549Z,1009.37
2023-02-19T01:30:35.566Z,1009.34
2023-02-19T01:31:35.628Z,1009.37
2023-02-19T01:32:35.512Z,1009.27
2023-02-19T01:33:35.499Z,1009.37
2023-02-19T01:34:35.489Z,1009.41
2023-02-19T01:35:35.475Z,1009.35
2023-02-19T01:36:35.453Z,1009.34
2023-02-19T01:37:35.449Z,1009.34
2023-02-19T01:38:35.434Z,1009.36
2023-02-19T01:39:35.448Z,1009.38
2023-02-19T01:40:35.417Z,1009.38
2023-02-19T01:41:35.407Z,1009.40
2023-02-19T01:42:35.390Z,1009.38
2023-02-19T01:43:35.397Z,1009.36
2023-02-19T01:44:35.379Z,1009.42
2023-02-19T01:45:35.364Z,1009.46
2023-02-19T01:46:35.368Z,1009.39
2023-02-19T01:47:35.345Z,1009.43
2023-02-19T01:48:35.327Z,1009.39
2023-02-19T01:49:35.320Z,1009.42
2023-02-19T01:50:35.310Z,1009.34
2023-02-19T01:51:35.303Z,1009.35
2023-02-19T01:52:35.281Z,1009.37
2023-02-19T01:53:35.275Z,1009.43
2023-02-19T01:54:35.261Z,1009.35
2023-02-19T01:55:35.262Z,1009.35
2023-02-19T01:56:35.243Z,1009.34
2023-02-19T01:57:35.230Z,1009.30
2023-02-19T01:58:35.245Z,1009.33
2023-02-19T01:59:35.208Z,1009.32
2023-02-19T02:00:35.251Z,1009.34
2023-02-19T02:01:35.186Z,1009.31
2023-02-19T02:02:35.168Z,1009.35
2023-02-19T02:03:35.162Z,1009.35
2023-02-19T02:04:35.149Z,1009.38
2023-02-19T02:05:35.148Z,1009.33
2023-02-19T02:06:35.135Z,1009.38
2023-02-19T02:07:35.119Z,1009.37
2023-02-19T02:08:35.103Z,1009.33
2023-02-19T02:09:35.103Z,1009.31
2023-02-19T02:10:35.093Z,1009.32
2023-02-19T02:11:35.078Z,1009.30
2023-02-19T02:12:35.057Z,1009.34
2023-02-19T02:13:35.053Z,1009.33
2023-02-19T02:14:35.040Z,1009.33
2023-02-19T02:15:35.040Z,1009.34
2023-02-19T02:16:35.016Z,1009.36
2023-02-19T02:17:35.012Z,1009.33
2023-02-19T02:18:34.995Z,1009.35
2023-02-19T02:19:34.989Z,1009.31
2023-02-19T02:20:34.981Z,1009.37
2023-02-19T02:21:34.969Z,1009.33
2023-02-19T02:22:34.951Z,1009.40
2023-02-19T02:23:34.945Z,1009.42
2023-02-19T02:24:34.928Z,1009.42
2023-02-19T02:25:34.931Z,1009.38
2023-02-19T02:26:34.905Z,1009.37
2023-02-19T02:27:34.903Z,1009.33
2023-02-19T02:28:34.886Z,1009.35
2023-02-19T02:29:34.879Z,1009.37
2023-02-19T02:30:34.905Z,1009.34
2023-02-19T02:31:35.021Z,1009.33
2023-02-19T02:32:34.839Z,1009.34
2023-02-19T02:33:34.833Z,1009.38
2023-02-19T02:34:34.826Z,1009.34
2023-02-19T02:35:34.830Z,1009.33
2023-02-19T02:36:34.802Z,1009.33
2023-02-19T02:37:34.788Z,1009.28
2023-02-19T02:38:34.776Z,1009.31
2023-02-19T02:39:34.766Z,1009.32
2023-02-19T02:40:34.768Z,1009.29
2023-02-19T02:41:34.743Z,1009.30
2023-02-19T02:42:34.738Z,1009.30
2023-02-19T02:43:34.722Z,1009.28
2023-02-19T02:44:34.708Z,1009.25
2023-02-19T02:45:34.736Z,1009.21
2023-02-19T02:46:34.702Z,1009.21
2023-02-19T02:47:34.673Z,1009.20
2023-02-19T02:48:34.679Z,1009.19
2023-02-19T02:49:34.649Z,1009.18
2023-02-19T02:50:34.645Z,1009.17
2023-02-19T02:51:34.657Z,1009.25
2023-02-19T02:52:34.623Z,1009.21
2023-02-19T02:53:34.607Z,1009.19
2023-02-19T02:54:34.597Z,1009.19
2023-02-19T02:55:34.585Z,1009.26
2023-02-19T02:56:34.592Z,1009.28
2023-02-19T02:57:34.562Z,1009.32
2023-02-19T02:58:34.556Z,1009.35
2023-02-19T02:59:34.540Z,1009.35
2023-02-19T03:00:34.535Z,1009.34
2023-02-19T03:01:34.527Z,1009.35
2023-02-19T03:02:34.590Z,1009.35
2023-02-19T03:03:34.495Z,1009.34
2023-02-19T03:04:34.490Z,1009.29
2023-02-19T03:05:34.471Z,1009.31
2023-02-19T03:06:34.482Z,1009.28
2023-02-19T03:07:34.449Z,1009.32
2023-02-19T03:08:34.443Z,1009.34
2023-02-19T03:09:34.431Z,1009.40
2023-02-19T03:10:34.444Z,1009.43
2023-02-19T03:11:34.413Z,1009.41
2023-02-19T03:12:34.397Z,1009.40
2023-02-19T03:13:34.388Z,1009.47
2023-02-19T03:14:34.381Z,1009.43
2023-02-19T03:15:34.360Z,1009.42
2023-02-19T03:16:34.432Z,1009.40
2023-02-19T03:17:34.340Z,1009.42
2023-02-19T03:18:34.337Z,1009.42
2023-02-19T03:19:34.315Z,1009.44
2023-02-19T03:20:34.307Z,1009.43
2023-02-19T03:21:34.308Z,1009.46
2023-02-19T03:22:34.289Z,1009.51
2023-02-19T03:23:34.268Z,1009.49
2023-02-19T03:24:34.271Z,1009.41
2023-02-19T03:25:34.247Z,1009.47
2023-02-19T03:26:34.247Z,1009.51
2023-02-19T03:27:34.236Z,1009.57
2023-02-19T03:28:34.220Z,1009.52
2023-02-19T03:29:34.203Z,1009.50
2023-02-19T03:30:34.252Z,1009.52
2023-02-19T03:31:34.330Z,1009.51
2023-02-19T03:32:34.172Z,1009.53
2023-02-19T03:33:34.156Z,1009.59
2023-02-19T03:34:34.150Z,1009.58
2023-02-19T03:35:34.133Z,1009.64
2023-02-19T03:36:34.135Z,1009.62
2023-02-19T03:37:34.112Z,1009.62
2023-02-19T03:38:34.104Z,1009.65
2023-02-19T03:39:34.091Z,1009.60
2023-02-19T03:40:34.082Z,1009.60
2023-02-19T03:41:34.078Z,1009.56
2023-02-19T03:42:34.061Z,1009.64
2023-02-19T03:43:34.748Z,1009.57
2023-02-19T03:44:34.040Z,1009.62
2023-02-19T03:45:34.052Z,1009.58
2023-02-19T03:46:34.024Z,1009.64
2023-02-19T03:47:34.007Z,1009.71
2023-02-19T03:48:33.988Z,1009.73
2023-02-19T03:49:33.982Z,1009.75
2023-02-19T03:50:33.969Z,1009.70
2023-02-19T03:51:33.969Z,1009.71
2023-02-19T03:52:33.944Z,1009.77
2023-02-19T03:53:33.939Z,1009.70
2023-02-19T03:54:33.923Z,1009.82
2023-02-19T03:55:33.919Z,1009.81
2023-02-19T03:56:33.922Z,1009.79
2023-02-19T03:57:33.900Z,1009.77
2023-02-19T03:58:33.887Z,1009.80
2023-02-19T03:59:33.875Z,1009.74
2023-02-19T04:00:33.870Z,1009.80
2023-02-19T04:01:33.854Z,1009.80
2023-02-19T04:02:33.889Z,1009.82
2023-02-19T04:03:33.834Z,1009.86
2023-02-19T04:04:33.899Z,1009.85
2023-02-19T04:05:33.813Z,1009.91
2023-02-19T04:06:33.798Z,1009.88
2023-02-19T04:07:33.799Z,1009.93
2023-02-19T04:08:33.783Z,1009.85
2023-02-19T04:09:33.766Z,1009.92
2023-02-19T04:10:33.755Z,1009.93
2023-02-19T04:11:33.747Z,1009.92
2023-02-19T04:12:33.735Z,1009.92
2023-02-19T04:13:33.726Z,1009.96
2023-02-19T04:14:33.709Z,1009.98
2023-02-19T04:15:33.708Z,1009.99
2023-02-19T04:16:33.714Z,1010.04
2023-02-19T04:17:33.689Z,1010.10
2023-02-19T04:18:33.672Z,1010.04
2023-02-19T04:19:33.655Z,1010.05
2023-02-19T04:20:33.643Z,1010.11
2023-02-19T04:21:33.634Z,1010.10
2023-02-19T04:22:33.627Z,1010.09
2023-02-19T04:23:33.615Z,1010.11
2023-02-19T04:24:33.593Z,1010.12
2023-02-19T04:25:33.589Z,1010.12
2023-02-19T04:26:33.575Z,1010.12
2023-02-19T04:27:33.575Z,1010.11
2023-02-19T04:28:33.550Z,1010.07
2023-02-19T04:29:33.558Z,1010.11
2023-02-19T04:30:33.653Z,1010.17
2023-02-19T04:31:33.573Z,1010.14
2023-02-19T04:32:33.513Z,1010.18
2023-02-19T04:33:33.501Z,1010.17
2023-02-19T04:34:33.486Z,1010.24
2023-02-19T04:35:33.481Z,1010.25
2023-02-19T04:36:33.456Z,1010.29
2023-02-19T04:37:33.463Z,1010.28
2023-02-19T04:38:33.433Z,1010.28
2023-02-19T04:39:33.443Z,1010.31
2023-02-19T04:40:33.427Z,1010.36
2023-02-19T04:41:33.406Z,1010.34
2023-02-19T04:42:33.398Z,1010.36
2023-02-19T04:43:33.384Z,1010.34
2023-02-19T04:44:33.375Z,1010.39
2023-02-19T04:45:33.374Z,1010.39
2023-02-19T04:46:33.346Z,1010.38
2023-02-19T04:47:33.348Z,1010.43
2023-02-19T04:48:33.322Z,1010.49
2023-02-19T04:49:33.321Z,1010.43
2023-02-19T04:50:33.311Z,1010.54
2023-02-19T04:51:33.293Z,1010.57
2023-02-19T04:52:33.294Z,1010.63
2023-02-19T04:53:33.271Z,1010.59
2023-02-19T04:54:33.258Z,1010.64
2023-02-19T04:55:33.254Z,1010.62
2023-02-19T04:56:33.234Z,1010.62
2023-02-19T04:57:33.232Z,1010.67
2023-02-19T04:58:33.221Z,1010.55
2023-02-19T04:59:33.207Z,1010.64
2023-02-19T05:00:33.188Z,1010.65
2023-02-19T05:01:33.204Z,1010.65
2023-02-19T05:02:33.167Z,1010.65
2023-02-19T05:03:33.172Z,1010.68
2023-02-19T05:04:33.167Z,1010.77
2023-02-19T05:05:33.154Z,1010.76
2023-02-19T05:06:33.135Z,1010.73
2023-02-19T05:07:33.117Z,1010.73
2023-02-19T05:08:33.122Z,1010.74
2023-02-19T05:09:33.094Z,1010.74
2023-02-19T05:10:33.083Z,1010.81
2023-02-19T05:11:33.084Z,1010.81
2023-02-19T05:12:33.062Z,1010.85
2023-02-19T05:13:33.094Z,1010.84
2023-02-19T05:14:33.050Z,1010.91
2023-02-19T05:15:33.051Z,1010.91
2023-02-19T05:16:33.013Z,1010.90
2023-02-19T05:17:33.005Z,1010.98
2023-02-19T05:18:33.000Z,1010.96
2023-02-19T05:19:32.984Z,1011.02
2023-02-19T05:20:32.968Z,1011.01
2023-02-19T05:21:32.963Z,1011.05
2023-02-19T05:22:32.945Z,1011.02
2023-02-19T05:23:32.948Z,1011.00
2023-02-19T05:24:32.926Z,1011.06
2023-02-19T05:25:32.917Z,1011.06
2023-02-19T05:26:32.902Z,1011.09
2023-02-19T05:27:32.903Z,1011.11
2023-02-19T05:28:32.901Z,1011.09
2023-02-19T05:29:32.873Z,1011.11
2023-02-19T05:30:32.913Z,1011.10
2023-02-19T05:31:32.891Z,1011.12
2023-02-19T05:32:32.853Z,1011.14
2023-02-19T05:33:32.840Z,1011.14
2023-02-19T05:34:32.813Z,1011.21
2023-02-19T05:35:32.808Z,1011.21
2023-02-19T05:36:32.800Z,1011.22
2023-02-19T05:37:32.785Z,1011.18
2023-02-19T05:38:32.777Z,1011.19
2023-02-19T05:39:32.763Z,1011.24
2023-02-19T05:40:32.746Z,1011.21
2023-02-19T05:41:32.744Z,1011.28
2023-02-19T05:42:32.725Z,1011.30
2023-02-19T05:43:32.732Z,1011.31
2023-02-19T05:44:32.701Z,1011.29
2023-02-19T05:45:32.700Z,1011.33
2023-02-19T05:46:32.768Z,1011.30
2023-02-19T05:47:32.671Z,1011.29
2023-02-19T05:48:32.656Z,1011.28
2023-02-19T05:49:32.659Z,1011.26
2023-02-19T05:50:32.636Z,1011.30
2023-02-19T05:51:32.646Z,1011.34
2023-02-19T05:52:32.612Z,1011.29
2023-02-19T05:53:32.604Z,1011.36
2023-02-19T05:54:32.600Z,1011.33
2023-02-19T05:55:32.583Z,1011.32
2023-02-19T05:56:32.572Z,1011.38
2023-02-19T05:57:32.564Z,1011.34
2023-02-19T05:58:32.546Z,1011.37
2023-02-19T05:59:32.551Z,1011.38
2023-02-19T06:00:32.525Z,1011.43
2023-02-19T06:01:32.516Z,1011.43
2023-02-19T06:02:32.526Z,1011.45
2023-02-19T06:03:32.519Z,1011.45
2023-02-19T06:04:32.488Z,1011.54
2023-02-19T06:05:32.473Z,1011.49
2023-02-19T06:06:32.469Z,1011.47
2023-02-19T06:07:32.452Z,1011.46
2023-02-19T06:08:32.452Z,1011.54
2023-02-19T06:09:32.460Z,1011.54
2023-02-19T06:10:32.448Z,1011.54
2023-02-19T06:11:32.405Z,1011.55
2023-02-19T06:12:32.391Z,1011.55
2023-02-19T06:13:32.385Z,1011.49
2023-02-19T06:14:32.381Z,1011.60
2023-02-19T06:15:32.365Z,1011.56
2023-02-19T06:16:32.358Z,1011.56
2023-02-19T06:17:32.343Z,1011.61
2023-02-19T06:18:32.324Z,1011.64
2023-02-19T06:19:32.333Z,1011.62
2023-02-19T06:20:32.305Z,1011.72
2023-02-19T06:21:32.298Z,1011.74
2023-02-19T06:22:32.296Z,1011.75
2023-02-19T06:23:32.299Z,1011.74
2023-02-19T06:24:32.278Z,1011.73
2023-02-19T06:25:32.257Z,1011.78
2023-02-19T06:26:32.242Z,1011.72
2023-02-19T06:27:32.275Z,1011.75
2023-02-19T06:28:32.214Z,1011.74
2023-02-19T06:29:32.219Z,1011.75
2023-02-19T06:30:32.244Z,1011.81
2023-02-19T06:31:32.261Z,1011.84
2023-02-19T06:32:32.217Z,1011.85
2023-02-19T06:33:32.182Z,1011.83
2023-02-19T06:34:32.162Z,1011.87
2023-02-19T06:35:32.145Z,1011.85
2023-02-19T06:36:32.130Z,1011.92
2023-02-19T06:37:32.128Z,1011.89
2023-02-19T06:38:32.112Z,1011.91
2023-02-19T06:39:32.113Z,1011.90
2023-02-19T06:40:32.087Z,1011.92
2023-02-19T06:41:32.082Z,1011.95
2023-02-19T06:42:32.075Z,1012.01
2023-02-19T06:43:32.061Z,1011.99
2023-02-19T06:44:32.070Z,1012.00
2023-02-19T06:45:32.041Z,1012.00
2023-02-19T06:46:32.061Z,1012.04
2023-02-19T06:47:32.020Z,1012.01
2023-02-19T06:48:32.006Z,1012.11
2023-02-19T06:49:32.000Z,1012.15
2023-02-19T06:50:31.984Z,1012.13
2023-02-19T06:51:31.967Z,1012.12
2023-02-19T06:52:31.965Z,1012.16
2023-02-19T06:53:31.942Z,1012.21
2023-02-19T06:54:31.949Z,1012.22
2023-02-19T06:55:31.921Z,1012.24
2023-02-19T06:56:31.914Z,1012.22
2023-02-19T06:57:31.911Z,1012.36
2023-02-19T06:58:31.895Z,1012.33
2023-02-19T06:59:31.889Z,1012.37
2023-02-19T07:00:31.907Z,1012.38
2023-02-19T07:01:31.895Z,1012.38
2023-02-19T07:02:31.842Z,1012.37
2023-02-19T07:03:31.849Z,1012.39
2023-02-19T07:04:31.832Z,1012.44
2023-02-19T07:05:31.816Z,1012.45
2023-02-19T07:06:31.798Z,1012.48
2023-02-19T07:07:31.792Z,1012.48
2023-02-19T07:08:31.782Z,1012.60
2023-02-19T07:09:31.780Z,1012.58
2023-02-19T07:10:31.749Z,1012.57
2023-02-19T07:11:31.749Z,1012.59
2023-02-19T07:12:31.725Z,1012.63
2023-02-19T07:13:31.719Z,1012.63
2023-02-19T07:14:31.721Z,1012.70
2023-02-19T07:15:31.699Z,1012.71
2023-02-19T07:16:31.747Z,1012.68
2023-02-19T07:17:31.672Z,1012.71
2023-02-19T07:18:31.660Z,1012.74
2023-02-19T07:19:31.694Z,1012.84
2023-02-19T07:20:31.643Z,1012.78
2023-02-19T07:21:31.631Z,1012.83
2023-02-19T07:22:31.618Z,1012.82
2023-02-19T07:23:31.606Z,1012.77
2023-02-19T07:24:31.605Z,1012.78
2023-02-19T07:25:31.594Z,1012.83
2023-02-19T07:26:31.576Z,1012.91
2023-02-19T07:27:31.575Z,1012.92
2023-02-19T07:28:31.550Z,1012.85
2023-02-19T07:29:31.542Z,1012.91
2023-02-19T07:30:31.617Z,1013.03
2023-02-19T07:31:31.637Z,1013.05
2023-02-19T07:32:31.500Z,1012.94
2023-02-19T07:33:31.496Z,1013.02
2023-02-19T07:34:31.485Z,1013.08
2023-02-19T07:35:31.481Z,1013.06
2023-02-19T07:36:31.465Z,1013.11
2023-02-19T07:37:31.460Z,1013.10
2023-02-19T07:38:31.436Z,1013.12
2023-02-19T07:39:31.439Z,1013.13
2023-02-19T07:40:31.430Z,1013.13
2023-02-19T07:41:31.406Z,1013.15
2023-02-19T07:42:31.393Z,1013.22
2023-02-19T07:43:31.403Z,1013.22
2023-02-19T07:44:31.372Z,1013.22
2023-02-19T07:45:31.411Z,1013.27
2023-02-19T07:46:31.364Z,1013.21
2023-02-19T07:47:31.351Z,1013.17
2023-02-19T07:48:31.330Z,1013.18
2023-02-19T07:49:31.322Z,1013.29
2023-02-19T07:50:31.317Z,1013.36
2023-02-19T07:51:31.301Z,1013.39
2023-02-19T07:52:31.288Z,1013.42
2023-02-19T07:53:31.282Z,1013.55
2023-02-19T07:54:31.262Z,1013.53
2023-02-19T07:55:31.269Z,1013.59
2023-02-19T07:56:31.248Z,1013.55
2023-02-19T07:57:31.301Z,1013.51
2023-02-19T07:58:31.222Z,1013.54
2023-02-19T07:59:31.224Z,1013.64
2023-02-19T08:00:31.208Z,1013.60
2023-02-19T08:01:31.228Z,1013.63
2023-02-19T08:02:31.176Z,1013.69
2023-02-19T08:03:31.249Z,1013.75
2023-02-19T08:04:31.157Z,1013.79
2023-02-19T08:05:31.156Z,1013.75
2023-02-19T08:06:31.129Z,1013.77
2023-02-19T08:07:31.125Z,1013.80
2023-02-19T08:08:31.112Z,1013.87
2023-02-19T08:09:31.105Z,1013.91
2023-02-19T08:10:31.103Z,1013.94
2023-02-19T08:11:31.090Z,1014.02
2023-02-19T08:12:31.070Z,1014.06
2023-02-19T08:13:31.062Z,1014.08
2023-02-19T08:14:31.056Z,1014.09
2023-02-19T08:15:31.046Z,1014.07
2023-02-19T08:16:42.700Z,1014.10
2023-02-19T08:17:31.021Z,1014.03
2023-02-19T08:18:30.999Z,1014.05
2023-02-19T08:19:30.993Z,1013.99
2023-02-19T08:20:30.983Z,1014.10
2023-02-19T08:21:32.612Z,1014.06
2023-02-19T08:22:30.955Z,1014.12
2023-02-19T08:23:30.944Z,1014.14
2023-02-19T08:24:30.937Z,1014.17
2023-02-19T08:25:30.932Z,1014.20
2023-02-19T08:26:30.915Z,1014.21
2023-02-19T08:27:30.902Z,1014.19
2023-02-19T08:28:30.894Z,1014.22
2023-02-19T08:29:30.882Z,1014.18
2023-02-19T08:30:31.034Z,1014.14
2023-02-19T08:31:30.941Z,1014.16
2023-02-19T08:32:30.841Z,1014.23
2023-02-19T08:33:30.839Z,1014.19
2023-02-19T08:34:30.822Z,1014.21
2023-02-19T08:35:30.811Z,1014.18
2023-02-19T08:36:30.824Z,1014.18
2023-02-19T08:37:30.789Z,1014.21
2023-02-19T08:38:30.774Z,1014.23
2023-02-19T08:39:30.768Z,1014.21
2023-02-19T08:40:30.755Z,1014.23
2023-02-19T08:41:30.763Z,1014.27
2023-02-19T08:42:30.732Z,1014.31
2023-02-19T08:43:30.724Z,1014.29
2023-02-19T08:44:30.710Z,1014.36
2023-02-19T08:45:30.704Z,1014.32
2023-02-19T08:46:32.026Z,1014.37
2023-02-19T08:47:30.679Z,1014.39
2023-02-19T08:48:30.667Z,1014.40
2023-02-19T08:49:30.676Z,1014.47
2023-02-19T08:50:30.640Z,1014.50
2023-02-19T08:51:30.645Z,1014.50
2023-02-19T08:52:30.661Z,1014.49
2023-02-19T08:53:30.610Z,1014.48
2023-02-19T08:54:30.592Z,1014.50
2023-02-19T08:55:30.585Z,1014.55
2023-02-19T08:56:30.582Z,1014.58
2023-02-19T08:57:30.566Z,1014.61
2023-02-19T08:58:30.558Z,1014.68
2023-02-19T08:59:30.541Z,1014.78
2023-02-19T09:00:30.576Z,1014.77
2023-02-19T09:01:30.555Z,1014.78
2023-02-19T09:02:30.506Z,1014.77
2023-02-19T09:03:30.502Z,1014.75
2023-02-19T09:04:30.560Z,1014.80
2023-02-19T09:05:30.500Z,1014.77
2023-02-19T09:06:30.476Z,1014.77
2023-02-19T09:07:30.454Z,1014.84
2023-02-19T09:08:30.447Z,1014.82
2023-02-19T09:09:30.472Z,1014.86
2023-02-19T09:10:30.427Z,1014.89
2023-02-19T09:11:30.421Z,1014.84
2023-02-19T09:12:30.403Z,1014.92
2023-02-19T09:13:30.400Z,1014.92
2023-02-19T09:14:30.369Z,1014.99
2023-02-19T09:15:30.373Z,1014.98
2023-02-19T09:16:30.357Z,1015.06
2023-02-19T09:17:30.341Z,1015.04
2023-02-19T09:18:30.332Z,1015.03
2023-02-19T09:19:30.322Z,1015.06
2023-02-19T09:20:30.318Z,1015.10
2023-02-19T09:21:30.309Z,1015.09
2023-02-19T09:22:30.290Z,1015.11
2023-02-19T09:23:30.289Z,1015.16
2023-02-19T09:24:30.262Z,1015.16
2023-02-19T09:25:30.257Z,1015.17
2023-02-19T09:34:09.116Z,1015.34
2023-02-19T09:35:10.095Z,1015.34
2023-02-19T09:36:10.105Z,1015.35
2023-02-19T09:37:10.071Z,1015.38
2023-02-19T09:38:10.067Z,1015.35
2023-02-19T09:39:10.069Z,1015.37
2023-02-19T09:40:10.048Z,1015.35
2023-02-19T09:41:10.460Z,1015.41
2023-02-19T09:42:10.025Z,1015.40
2023-02-19T09:43:10.011Z,1015.46
2023-02-19T09:44:10.002Z,1015.50
2023-02-19T09:45:09.981Z,1015.52
2023-02-19T09:46:10.052Z,1015.58
2023-02-19T09:47:09.961Z,1015.63
2023-02-19T09:48:09.970Z,1015.68
2023-02-19T09:49:10.059Z,1015.72
2023-02-19T09:50:10.181Z,1015.75
2023-02-19T09:51:10.748Z,1015.79
2023-02-19T09:52:09.958Z,1015.85
2023-02-19T09:53:09.920Z,1015.90
2023-02-19T09:54:09.890Z,1015.81
2023-02-19T09:55:09.885Z,1015.86
2023-02-19T09:56:09.935Z,1015.85
2023-02-19T09:57:09.858Z,1015.82
2023-02-19T09:58:09.845Z,1015.85
2023-02-19T09:59:09.826Z,1015.83
2023-02-19T10:00:10.759Z,1015.88
2023-02-19T10:01:10.291Z,1015.88
2023-02-19T10:02:09.809Z,1015.90
2023-02-19T10:03:09.779Z,1015.95
2023-02-19T10:04:09.771Z,1015.93
2023-02-19T10:05:09.793Z,1015.97
2023-02-19T10:06:11.438Z,1016.03
2023-02-19T10:07:09.751Z,1016.05
2023-02-19T10:08:09.733Z,1016.20
2023-02-19T10:09:09.724Z,1016.20
2023-02-19T10:10:09.742Z,1016.19
2023-02-19T10:11:10.033Z,1016.21
2023-02-19T10:12:10.183Z,1016.24
2023-02-19T10:13:09.672Z,1016.25
2023-02-19T10:14:09.661Z,1016.29
2023-02-19T10:15:09.646Z,1016.25
2023-02-19T10:16:09.666Z,1016.26
2023-02-19T10:17:09.633Z,1016.24
2023-02-19T10:18:11.227Z,1016.35
2023-02-19T10:19:09.604Z,1016.30
2023-02-19T10:20:09.600Z,1016.41
2023-02-19T10:21:09.937Z,1016.36
2023-02-19T10:22:09.584Z,1016.42
2023-02-19T10:23:09.556Z,1016.37
2023-02-19T10:24:09.557Z,1016.34
2023-02-19T10:25:09.539Z,1016.34
2023-02-19T10:26:09.538Z,1016.39
2023-02-19T10:27:09.594Z,1016.37
2023-02-19T10:28:09.509Z,1016.42
2023-02-19T10:29:09.498Z,1016.45
2023-02-19T10:30:09.522Z,1016.48
2023-02-19T10:31:09.778Z,1016.57
2023-02-19T10:32:09.543Z,1016.63
2023-02-19T10:33:09.456Z,1016.65
2023-02-19T10:34:09.445Z,1016.68
2023-02-19T10:35:09.424Z,1016.69
2023-02-19T10:36:09.429Z,1016.62
2023-02-19T10:37:09.966Z,1016.56
2023-02-19T10:38:09.412Z,1016.51
2023-02-19T10:39:09.386Z,1016.48
2023-02-19T10:40:09.379Z,1016.45
2023-02-19T10:41:09.791Z,1016.52
2023-02-19T10:42:09.362Z,1016.53
2023-02-19T10:43:09.344Z,1016.58
2023-02-19T10:44:09.332Z,1016.58
2023-02-19T10:45:09.318Z,1016.59
2023-02-19T10:46:09.371Z,1016.68
2023-02-19T10:47:09.309Z,1016.75
2023-02-19T10:48:09.288Z,1016.74
2023-02-19T10:49:09.274Z,1016.74
2023-02-19T10:50:09.282Z,1016.76
2023-02-19T10:51:09.728Z,1016.75
2023-02-19T10:52:09.244Z,1016.80
2023-02-19T10:53:09.239Z,1016.80
2023-02-19T10:54:09.231Z,1016.82
2023-02-19T10:55:09.205Z,1016.84
2023-02-19T10:56:09.212Z,1016.89
2023-02-19T10:57:09.189Z,1016.90
2023-02-19T10:58:09.189Z,1016.92
2023-02-19T10:59:09.169Z,1016.84
2023-02-19T11:00:09.161Z,1016.92
2023-02-19T11:01:09.532Z,1016.88
2023-02-19T11:02:09.131Z,1016.89
2023-02-19T11:03:09.127Z,1016.86
2023-02-19T11:04:09.145Z,1016.90
2023-02-19T11:05:09.122Z,1016.89
2023-02-19T11:06:09.088Z,1016.89
2023-02-19T11:07:09.072Z,1016.89
2023-02-19T11:08:09.075Z,1016.92
2023-02-19T11:09:09.051Z,1016.93
2023-02-19T11:10:09.048Z,1016.96
2023-02-19T11:11:09.416Z,1016.95
2023-02-19T11:12:09.650Z,1016.94
2023-02-19T11:13:09.013Z,1016.96
2023-02-19T11:14:09.015Z,1016.95
2023-02-19T11:15:08.989Z,1016.96
2023-02-19T11:16:09.022Z,1017.00
2023-02-19T11:17:08.967Z,1016.98
2023-02-19T11:18:08.964Z,1016.97
2023-02-19T11:19:08.936Z,1016.98
2023-02-19T11:20:08.930Z,1016.94
2023-02-19T11:21:09.125Z,1016.90
2023-02-19T11:22:08.916Z,1016.91
2023-02-19T11:23:08.901Z,1016.88
2023-02-19T11:24:08.888Z,1016.91
2023-02-19T11:25:08.875Z,1016.93
2023-02-19T11:26:08.868Z,1016.95
2023-02-19T11:27:08.850Z,1016.94
2023-02-19T11:28:08.856Z,1016.90
2023-02-19T11:29:08.827Z,1016.94
2023-02-19T11:30:08.887Z,1016.94
2023-02-19T11:31:09.074Z,1016.90
2023-02-19T11:32:08.877Z,1016.97
2023-02-19T11:33:08.791Z,1016.94
2023-02-19T11:34:08.774Z,1016.95
2023-02-19T11:35:08.764Z,1016.97
2023-02-19T11:36:08.767Z,1016.98
2023-02-19T11:37:08.743Z,1016.99
2023-02-19T11:38:08.750Z,1017.01
2023-02-19T11:39:08.719Z,1016.97
2023-02-19T11:40:08.710Z,1016.98
2023-02-19T11:41:08.830Z,1016.95
2023-02-19T11:42:08.693Z,1016.89
2023-02-19T11:43:08.692Z,1016.91
2023-02-19T11:44:08.682Z,1016.85
2023-02-19T11:45:08.652Z,1016.88
2023-02-19T11:46:08.648Z,1016.82
2023-02-19T11:47:08.639Z,1016.90
2023-02-19T11:48:08.636Z,1016.93
2023-02-19T11:49:08.608Z,1016.96
2023-02-19T11:50:08.602Z,1017.01
2023-02-19T11:51:08.740Z,1016.92
2023-02-19T11:52:08.587Z,1016.93
2023-02-19T11:53:08.575Z,1016.92
2023-02-19T11:54:08.557Z,1016.86
2023-02-19T11:55:08.541Z,1016.82
2023-02-19T11:56:08.541Z,1016.85
2023-02-19T11:57:08.517Z,1016.81
2023-02-19T11:58:08.521Z,1016.85
2023-02-19T11:59:08.502Z,1016.85
2023-02-19T12:00:08.500Z,1016.88
2023-02-19T12:01:08.550Z,1016.85
2023-02-19T12:02:08.493Z,1016.84
2023-02-19T12:03:08.458Z,1016.84
2023-02-19T12:04:08.451Z,1016.90
2023-02-19T12:05:08.462Z,1016.93
2023-02-19T12:06:08.725Z,1016.99
2023-02-19T12:07:08.403Z,1016.95
2023-02-19T12:08:08.408Z,1016.94
2023-02-19T12:09:08.380Z,1016.96
2023-02-19T12:10:08.377Z,1016.92
2023-02-19T12:11:08.360Z,1016.94
2023-02-19T12:12:08.355Z,1016.90
2023-02-19T12:13:08.346Z,1016.93